WetterOnline ( https://www.wetteronline.de )

Wetter aktuell Hofheim

Aktuelles Wetter: Frankfurt/Flughafen (113m)

6-stündlich | Neueste Meldungen
Ortszeit Temperatur Wetter
Do, 02.12. 1:00 6.1° C leichte Schauer
Mi, 01.12. 19:00 6.5° C leicht bewölkt
Mi, 01.12. 13:00 8.6° C bewölkt
Mi, 01.12. 7:00 6.2° C leichter Regen
Mi, 01.12. 1:00 6.1° C bedeckt
Di, 30.11. 19:00 5.9° C leichter Regen
Di, 30.11. 13:00 4.3° C leichter Regen
Di, 30.11. 7:00 2.8° C leichter Schneeregen
Ortszeit Temperatur Wetter
Do, 02.12. 1:20 6° C leichte Schauer
Do, 02.12. 1:00 6.1° C leichte Schauer
Do, 02.12. 0:50 6.1° C leichter Regen
Do, 02.12. 0:40 6.1° C Sprühregen
Do, 02.12. 0:30 6.5° C bedeckt
Do, 02.12. 0:20 6.5° C Sprühregen
Do, 02.12. 0:00 6.3° C wolkig
Mi, 01.12. 23:30 6.2° C wolkig
Mi, 01.12. 23:00 6.3° C wolkig
Mi, 01.12. 22:30 6.8° C wolkenlos
Mi, 01.12. 22:00 6.7° C leicht bewölkt
Ortszeit Relative Feuchte Sichtweite
Do, 02.12. 1:00 78% 20 km
Mi, 01.12. 19:00 85% 60 km
Mi, 01.12. 13:00 75% 35 km
Mi, 01.12. 7:00 80% 20 km
Mi, 01.12. 1:00 82% 30 km
Di, 30.11. 19:00 84% 18 km
Di, 30.11. 13:00 89% 10 km
Di, 30.11. 7:00 86% 9 km
Ortszeit Relative Feuchte Sichtweite
Do, 02.12. 1:20 81% >10 km
Do, 02.12. 1:00 78% 20 km
Do, 02.12. 0:50 78% -
Do, 02.12. 0:40 77% -
Do, 02.12. 0:30 74% -
Do, 02.12. 0:20 74% -
Do, 02.12. 0:00 74% 20 km
Mi, 01.12. 23:30 74% -
Mi, 01.12. 23:00 74% 60 km
Mi, 01.12. 22:30 73% -
Mi, 01.12. 22:00 76% 60 km
Ortszeit Niederschlagsmenge Niederschlagsart
Do, 02.12. 1:00 0.1 l/m2 in 6 Std. Schauer
Mi, 01.12. 19:00 0.5 l/m2 in 12 Std. Regenschauer
Mi, 01.12. 13:00 0.1 l/m2 in 6 Std. Regen
Mi, 01.12. 7:00 0.4 l/m2 in 12 Std. Regen
Mi, 01.12. 1:00 0.1 l/m2 in 6 Std. Regen
Di, 30.11. 19:00 3 l/m2 in 12 Std. Regen
Di, 30.11. 13:00 2 l/m2 in 6 Std. Schnee, Regen
Di, 30.11. 7:00 0.8 l/m2 in 12 Std. Schnee
Ortszeit Niederschlagsmenge Niederschlagsart
Do, 02.12. 1:20 keine Meldung -
Do, 02.12. 1:00 0.1 l/m2 in 1 Std. Schauer
Do, 02.12. 0:50 keine Meldung -
Do, 02.12. 0:40 keine Meldung -
Do, 02.12. 0:30 0.1 l/m2 in 1 Std. -
Do, 02.12. 0:20 keine Meldung -
Do, 02.12. 0:00 0.0 l/m2 in 1 Std. -
Mi, 01.12. 23:30 0.0 l/m2 in 1 Std. -
Mi, 01.12. 23:00 0.0 l/m2 in 1 Std. -
Mi, 01.12. 22:30 0.0 l/m2 in 1 Std. -
Mi, 01.12. 22:00 0.1 l/m2 in 1 Std. Regenschauer
Ortszeit Stärke Spitze Richtung
km/h Bft. km/h Grad Sektor
Do, 02.12. 1:00 17 3 46 260° W
Mi, 01.12. 19:00 22 4 61 220° SW
Mi, 01.12. 13:00 33 5 54 220° SW
Mi, 01.12. 7:00 33 5 57 220° SW
Mi, 01.12. 1:00 25 4 61 210° SW
Di, 30.11. 19:00 37 5 54 230° SW
Di, 30.11. 13:00 39 6 67 220° SW
Di, 30.11. 7:00 33 5 48 220° SW
Ortszeit Stärke Spitze Richtung
km/h Bft. km/h Grad Sektor
Do, 02.12. 1:20 11 2 - 230° SW
Do, 02.12. 1:00 17 3 31 260° W
Do, 02.12. 0:50 17 3 - 260° W
Do, 02.12. 0:40 22 4 - 250° W
Do, 02.12. 0:30 20 4 28 240° SW
Do, 02.12. 0:20 20 4 - 240° SW
Do, 02.12. 0:00 22 4 32 230° SW
Mi, 01.12. 23:30 18 3 25 230° SW
Mi, 01.12. 23:00 19 3 28 230° SW
Mi, 01.12. 22:30 18 3 29 240° SW
Mi, 01.12. 22:00 19 3 41 250° W
Ortszeit Untergrenze Bedeckung Gattung
total tief tief mittel hoch
Do, 02.12. 1:00 750 m 7/8 6/8 Cb Ac -
Mi, 01.12. 19:00 1140 m 5/8 3/8 Sc Ac -
Mi, 01.12. 13:00 420 m 7/8 7/8 Cu - -
Mi, 01.12. 7:00 300 m 8/8 8/8 Sc - -
Mi, 01.12. 1:00 420 m 8/8 7/8 Sc - -
Di, 30.11. 19:00 240 m 8/8 8/8 Sc - -
Di, 30.11. 13:00 240 m 8/8 6/8 Sc Ns -
Di, 30.11. 7:00 270 m 8/8 5/8 Sc Ns -
Ortszeit Bedeckungsgrad in Achtel und Wolkenuntergrenze
Do, 02.12. 1:20 1-2(480m) 3-4(600m) 5-7(750m)
Do, 02.12. 1:00 5(750m)
Do, 02.12. 0:50 7(660m) 8(780m)
Do, 02.12. 0:40 8(690m)
Do, 02.12. 0:30 8(750m)
Do, 02.12. 0:20 8(750m)
Do, 02.12. 0:00 5(780m)
Mi, 01.12. 23:30 4(1260m) 4(1050m) 6(1290m)
Mi, 01.12. 23:00 3(780m) 3(1800m) 4(1800m)
Mi, 01.12. 22:30 keine Wolken
Mi, 01.12. 22:00 1(750m)
Ortszeit Luftdruck NN (hPa) Tendenz (hPa in 3 Std.)
Do, 02.12. 1:00 999 + 1,1
Mi, 01.12. 19:00 996 + 1,7
Mi, 01.12. 13:00 996 - 3,5
Mi, 01.12. 7:00 1004 - 3,1
Mi, 01.12. 1:00 1009 - 1,2
Di, 30.11. 19:00 1010 + 0,5
Di, 30.11. 13:00 1009 - 1,5
Di, 30.11. 7:00 1012 - 2,6
Ortszeit Luftdruck NN (hPa) Tendenz (hPa in 3 Std.)
Do, 02.12. 1:20 998 keine Meldung
Do, 02.12. 1:00 999 + 1,1
Do, 02.12. 0:50 999 keine Meldung
Do, 02.12. 0:40 999 keine Meldung
Do, 02.12. 0:30 999 + 1,2
Do, 02.12. 0:20 999 keine Meldung
Do, 02.12. 0:00 999 + 1,2
Mi, 01.12. 23:30 999 + 1,4
Mi, 01.12. 23:00 998 + 1,3
Mi, 01.12. 22:30 998 + 1,4
Mi, 01.12. 22:00 998 + 1,5
Ortszeit Schneehöhe (cm)
Do, 02.12. 1:00 0
Mi, 01.12. 19:00 0
Mi, 01.12. 13:00 0
Mi, 01.12. 7:00 0
Mi, 01.12. 1:00 0
Di, 30.11. 19:00 0
Di, 30.11. 13:00 0
Di, 30.11. 7:00 0
Ortszeit Schneehöhe (cm)
Do, 02.12. 1:20 -
Do, 02.12. 1:00 0
Do, 02.12. 0:50 0
Do, 02.12. 0:40 0
Do, 02.12. 0:30 0
Do, 02.12. 0:20 0
Do, 02.12. 0:00 0
Mi, 01.12. 23:30 0
Mi, 01.12. 23:00 0
Mi, 01.12. 22:30 0
Mi, 01.12. 22:00 0
Link zu dieser Seite / Seite empfehlen

Das Wetter in ...